createdAt,value
2022-11-04T00:00:57.510Z,1000.78
2022-11-04T00:01:57.424Z,1000.77
2022-11-04T00:02:57.415Z,1000.77
2022-11-04T00:03:57.363Z,1000.74
2022-11-04T00:04:57.364Z,1000.73
2022-11-04T00:05:57.363Z,1000.76
2022-11-04T00:06:57.374Z,1000.81
2022-11-04T00:07:57.358Z,1000.76
2022-11-04T00:08:57.358Z,1000.78
2022-11-04T00:09:57.356Z,1000.76
2022-11-04T00:10:57.359Z,1000.78
2022-11-04T00:11:57.355Z,1000.81
2022-11-04T00:12:57.342Z,1000.76
2022-11-04T00:13:57.371Z,1000.77
2022-11-04T00:14:57.351Z,1000.72
2022-11-04T00:15:57.355Z,1000.68
2022-11-04T00:16:57.348Z,1000.67
2022-11-04T00:17:57.346Z,1000.65
2022-11-04T00:18:57.345Z,1000.68
2022-11-04T00:19:57.340Z,1000.62
2022-11-04T00:20:57.345Z,1000.67
2022-11-04T00:21:57.343Z,1000.65
2022-11-04T00:22:57.339Z,1000.64
2022-11-04T00:23:57.337Z,1000.64
2022-11-04T00:24:57.346Z,1000.61
2022-11-04T00:25:57.333Z,1000.60
2022-11-04T00:26:57.333Z,1000.65
2022-11-04T00:27:57.334Z,1000.66
2022-11-04T00:28:57.332Z,1000.68
2022-11-04T00:29:57.358Z,1000.66
2022-11-04T00:30:57.329Z,1000.63
2022-11-04T00:31:57.327Z,1000.62
2022-11-04T00:32:57.323Z,1000.61
2022-11-04T00:33:57.328Z,1000.61
2022-11-04T00:34:57.315Z,1000.59
2022-11-04T00:35:57.320Z,1000.61
2022-11-04T00:36:57.316Z,1000.57
2022-11-04T00:37:57.319Z,1000.58
2022-11-04T00:38:57.318Z,1000.57
2022-11-04T00:39:57.313Z,1000.57
2022-11-04T00:40:57.313Z,1000.54
2022-11-04T00:41:57.305Z,1000.44
2022-11-04T00:42:57.305Z,1000.50
2022-11-04T00:43:57.310Z,1000.48
2022-11-04T00:44:57.308Z,1000.47
2022-11-04T00:45:57.321Z,1000.48
2022-11-04T00:46:57.298Z,1000.48
2022-11-04T00:47:57.297Z,1000.48
2022-11-04T00:48:57.299Z,1000.49
2022-11-04T00:49:57.295Z,1000.48
2022-11-04T00:50:57.303Z,1000.46
2022-11-04T00:51:57.293Z,1000.40
2022-11-04T00:52:57.291Z,1000.41
2022-11-04T00:53:57.294Z,1000.38
2022-11-04T00:54:57.292Z,1000.42
2022-11-04T00:55:57.289Z,1000.39
2022-11-04T00:56:57.288Z,1000.39
2022-11-04T00:57:57.284Z,1000.39
2022-11-04T00:58:57.281Z,1000.39
2022-11-04T00:59:57.279Z,1000.40
2022-11-04T01:00:57.319Z,1000.42
2022-11-04T01:01:57.412Z,1000.37
2022-11-04T01:02:57.325Z,1000.41
2022-11-04T01:03:57.273Z,1000.41
2022-11-04T01:04:57.279Z,1000.37
2022-11-04T01:05:57.272Z,1000.38
2022-11-04T01:06:57.269Z,1000.36
2022-11-04T01:07:57.268Z,1000.37
2022-11-04T01:08:57.266Z,1000.40
2022-11-04T01:09:57.263Z,1000.40
2022-11-04T01:10:57.263Z,1000.41
2022-11-04T01:11:57.263Z,1000.36
2022-11-04T01:12:57.260Z,1000.39
2022-11-04T01:13:57.257Z,1000.39
2022-11-04T01:14:57.258Z,1000.38
2022-11-04T01:15:57.255Z,1000.37
2022-11-04T01:16:57.250Z,1000.33
2022-11-04T01:17:57.272Z,1000.33
2022-11-04T01:18:57.248Z,1000.31
2022-11-04T01:19:57.246Z,1000.30
2022-11-04T01:20:57.246Z,1000.29
2022-11-04T01:21:57.241Z,1000.25
2022-11-04T01:22:57.249Z,1000.25
2022-11-04T01:23:57.239Z,1000.22
2022-11-04T01:24:57.251Z,1000.19
2022-11-04T01:25:57.237Z,1000.20
2022-11-04T01:26:57.236Z,1000.16
2022-11-04T01:27:57.237Z,1000.20
2022-11-04T01:28:57.243Z,1000.17
2022-11-04T01:29:57.228Z,1000.12
2022-11-04T01:30:57.231Z,1000.09
2022-11-04T01:31:57.227Z,1000.05
2022-11-04T01:32:57.225Z,999.98
2022-11-04T01:33:57.249Z,999.97
2022-11-04T01:34:57.224Z,999.94
2022-11-04T01:35:57.224Z,999.87
2022-11-04T01:36:57.221Z,999.93
2022-11-04T01:37:57.216Z,999.97
2022-11-04T01:38:57.221Z,999.95
2022-11-04T01:39:57.212Z,999.96
2022-11-04T01:40:57.218Z,999.98
2022-11-04T01:41:57.287Z,999.98
2022-11-04T01:42:57.214Z,1000.03
2022-11-04T01:43:57.208Z,1000.01
2022-11-04T01:44:57.208Z,999.97
2022-11-04T01:45:57.203Z,999.95
2022-11-04T01:46:57.200Z,999.99
2022-11-04T01:47:57.204Z,999.94
2022-11-04T01:48:57.205Z,999.97
2022-11-04T01:49:57.276Z,999.96
2022-11-04T01:50:57.197Z,999.96
2022-11-04T01:51:57.194Z,999.97
2022-11-04T01:52:57.193Z,999.99
2022-11-04T01:53:57.200Z,1000.00
2022-11-04T01:54:57.191Z,1000.00
2022-11-04T01:55:57.190Z,999.94
2022-11-04T01:56:57.188Z,999.96
2022-11-04T01:57:57.185Z,999.94
2022-11-04T01:58:57.181Z,999.95
2022-11-04T01:59:57.183Z,999.91
2022-11-04T02:00:57.264Z,999.89
2022-11-04T02:01:57.359Z,999.88
2022-11-04T02:02:57.180Z,999.89
2022-11-04T02:03:57.175Z,999.93
2022-11-04T02:04:57.176Z,999.96
2022-11-04T02:05:57.196Z,1000.03
2022-11-04T02:06:57.174Z,1000.07
2022-11-04T02:07:57.169Z,1000.08
2022-11-04T02:08:57.235Z,1000.09
2022-11-04T02:09:57.168Z,1000.09
2022-11-04T02:10:57.163Z,1000.09
2022-11-04T02:11:57.160Z,1000.09
2022-11-04T02:12:57.161Z,1000.07
2022-11-04T02:13:57.158Z,1000.07
2022-11-04T02:14:57.162Z,1000.03
2022-11-04T02:15:57.158Z,1000.00
2022-11-04T02:16:57.152Z,999.99
2022-11-04T02:17:57.155Z,999.95
2022-11-04T02:18:57.144Z,999.94
2022-11-04T02:19:57.151Z,999.99
2022-11-04T02:20:57.151Z,999.98
2022-11-04T02:21:57.164Z,999.99
2022-11-04T02:22:57.148Z,999.97
2022-11-04T02:23:57.146Z,999.91
2022-11-04T02:24:57.144Z,999.89
2022-11-04T02:25:57.137Z,999.88
2022-11-04T02:26:57.141Z,999.86
2022-11-04T02:27:57.138Z,999.90
2022-11-04T02:28:57.133Z,999.93
2022-11-04T02:29:57.134Z,999.90
2022-11-04T02:30:57.141Z,999.86
2022-11-04T02:31:57.148Z,999.82
2022-11-04T02:32:57.134Z,999.78
2022-11-04T02:33:57.129Z,999.76
2022-11-04T02:34:57.128Z,999.70
2022-11-04T02:35:57.126Z,999.75
2022-11-04T02:36:57.123Z,999.74
2022-11-04T02:37:57.177Z,999.72
2022-11-04T02:38:57.120Z,999.73
2022-11-04T02:39:57.122Z,999.72
2022-11-04T02:40:57.121Z,999.64
2022-11-04T02:41:57.114Z,999.65
2022-11-04T02:42:57.116Z,999.65
2022-11-04T02:43:57.112Z,999.68
2022-11-04T02:44:57.116Z,999.67
2022-11-04T02:45:57.109Z,999.72
2022-11-04T02:46:57.115Z,999.70
2022-11-04T02:47:57.102Z,999.74
2022-11-04T02:48:57.107Z,999.72
2022-11-04T02:49:57.103Z,999.68
2022-11-04T02:50:57.102Z,999.65
2022-11-04T02:51:57.102Z,999.65
2022-11-04T02:52:57.100Z,999.65
2022-11-04T02:53:57.116Z,999.69
2022-11-04T02:54:57.095Z,999.65
2022-11-04T02:55:57.092Z,999.61
2022-11-04T02:56:57.099Z,999.62
2022-11-04T02:57:57.104Z,999.62
2022-11-04T02:58:57.091Z,999.58
2022-11-04T02:59:57.088Z,999.56
2022-11-04T03:00:57.172Z,999.54
2022-11-04T03:01:57.195Z,999.52
2022-11-04T03:02:57.084Z,999.55
2022-11-04T03:03:57.079Z,999.54
2022-11-04T03:04:57.081Z,999.58
2022-11-04T03:05:57.078Z,999.61
2022-11-04T03:06:57.142Z,999.58
2022-11-04T03:07:57.074Z,999.59
2022-11-04T03:08:57.071Z,999.57
2022-11-04T03:09:57.106Z,999.54
2022-11-04T03:10:57.066Z,999.48
2022-11-04T03:11:57.067Z,999.47
2022-11-04T03:12:57.065Z,999.44
2022-11-04T03:13:57.062Z,999.43
2022-11-04T03:14:57.057Z,999.44
2022-11-04T03:15:57.058Z,999.41
2022-11-04T03:16:57.066Z,999.47
2022-11-04T03:17:57.061Z,999.46
2022-11-04T03:18:57.058Z,999.46
2022-11-04T03:19:57.055Z,999.49
2022-11-04T03:20:57.051Z,999.48
2022-11-04T03:21:57.053Z,999.48
2022-11-04T03:22:57.047Z,999.48
2022-11-04T03:23:57.050Z,999.49
2022-11-04T03:24:57.052Z,999.43
2022-11-04T03:25:57.065Z,999.42
2022-11-04T03:26:57.042Z,999.41
2022-11-04T03:27:57.043Z,999.47
2022-11-04T03:28:57.040Z,999.44
2022-11-04T03:29:57.041Z,999.47
2022-11-04T03:30:57.043Z,999.47
2022-11-04T03:31:57.038Z,999.46
2022-11-04T03:32:57.034Z,999.49
2022-11-04T03:33:57.026Z,999.49
2022-11-04T03:34:57.029Z,999.48
2022-11-04T03:35:57.030Z,999.54
2022-11-04T03:36:57.027Z,999.52
2022-11-04T03:37:57.028Z,999.53
2022-11-04T03:38:57.021Z,999.51
2022-11-04T03:39:57.020Z,999.51
2022-11-04T03:40:57.022Z,999.53
2022-11-04T03:41:57.039Z,999.55
2022-11-04T03:42:57.024Z,999.57
2022-11-04T03:43:57.012Z,999.57
2022-11-04T03:44:57.012Z,999.58
2022-11-04T03:45:57.013Z,999.57
2022-11-04T03:46:57.014Z,999.59
2022-11-04T03:47:57.011Z,999.63
2022-11-04T03:48:57.010Z,999.64
2022-11-04T03:49:57.014Z,999.63
2022-11-04T03:50:57.002Z,999.62
2022-11-04T03:51:57.009Z,999.61
2022-11-04T03:52:56.996Z,999.69
2022-11-04T03:53:56.994Z,999.69
2022-11-04T03:54:56.997Z,999.69
2022-11-04T03:55:56.991Z,999.74
2022-11-04T03:56:56.994Z,999.79
2022-11-04T03:57:57.013Z,999.84
2022-11-04T03:58:56.989Z,999.83
2022-11-04T03:59:56.991Z,999.90
2022-11-04T04:00:57.031Z,999.89
2022-11-04T04:01:57.108Z,999.90
2022-11-04T04:02:56.983Z,999.88
2022-11-04T04:03:56.982Z,999.87
2022-11-04T04:04:56.980Z,999.84
2022-11-04T04:05:56.976Z,999.86
2022-11-04T04:06:56.982Z,999.84
2022-11-04T04:07:56.971Z,999.84
2022-11-04T04:08:56.976Z,999.83
2022-11-04T04:09:56.976Z,999.74
2022-11-04T04:10:56.968Z,999.77
2022-11-04T04:11:56.972Z,999.75
2022-11-04T04:12:56.973Z,999.79
2022-11-04T04:13:57.000Z,999.78
2022-11-04T04:14:56.967Z,999.75
2022-11-04T04:15:56.955Z,999.79
2022-11-04T04:16:56.987Z,999.76
2022-11-04T04:17:56.960Z,999.75
2022-11-04T04:18:58.660Z,999.75
2022-11-04T04:19:56.956Z,999.76
2022-11-04T04:20:56.954Z,999.77
2022-11-04T04:21:56.945Z,999.78
2022-11-04T04:22:56.953Z,999.78
2022-11-04T04:23:56.951Z,999.77
2022-11-04T04:24:56.949Z,999.73
2022-11-04T04:25:56.950Z,999.75
2022-11-04T04:26:56.946Z,999.75
2022-11-04T04:27:56.943Z,999.72
2022-11-04T04:28:56.944Z,999.71
2022-11-04T04:29:56.961Z,999.70
2022-11-04T04:31:00.431Z,999.67
2022-11-04T04:31:56.940Z,999.68
2022-11-04T04:32:56.936Z,999.66
2022-11-04T04:33:56.996Z,999.65
2022-11-04T04:34:56.972Z,999.64
2022-11-04T04:35:56.930Z,999.67
2022-11-04T04:36:56.939Z,999.68
2022-11-04T04:37:56.940Z,999.65
2022-11-04T04:38:56.929Z,999.71
2022-11-04T04:39:56.923Z,999.67
2022-11-04T04:41:56.925Z,999.74
2022-11-04T04:42:56.933Z,999.79
2022-11-04T04:43:56.920Z,999.75
2022-11-04T04:44:56.920Z,999.73
2022-11-04T04:45:56.944Z,999.71
2022-11-04T04:46:56.910Z,999.71
2022-11-04T04:47:56.909Z,999.69
2022-11-04T04:48:56.911Z,999.71
2022-11-04T04:49:56.908Z,999.66
2022-11-04T04:50:56.936Z,999.64
2022-11-04T04:51:56.907Z,999.64
2022-11-04T04:52:56.903Z,999.62
2022-11-04T04:53:56.904Z,999.60
2022-11-04T04:54:56.912Z,999.58
2022-11-04T04:55:56.903Z,999.56
2022-11-04T04:56:56.900Z,999.59
2022-11-04T04:57:56.899Z,999.64
2022-11-04T04:58:56.893Z,999.66
2022-11-04T04:59:56.891Z,999.62
2022-11-04T05:00:56.908Z,999.65
2022-11-04T05:01:56.979Z,999.64
2022-11-04T05:02:56.891Z,999.63
2022-11-04T05:03:56.887Z,999.66
2022-11-04T05:04:56.888Z,999.68
2022-11-04T05:05:58.771Z,999.65
2022-11-04T05:06:56.887Z,999.64
2022-11-04T05:07:56.884Z,999.59
2022-11-04T05:08:56.880Z,999.57
2022-11-04T05:09:56.882Z,999.60
2022-11-04T05:10:56.880Z,999.64
2022-11-04T05:11:56.877Z,999.63
2022-11-04T05:12:56.878Z,999.63
2022-11-04T05:13:56.875Z,999.65
2022-11-04T05:14:56.872Z,999.66
2022-11-04T05:15:56.870Z,999.69
2022-11-04T05:16:56.870Z,999.72
2022-11-04T05:17:56.884Z,999.69
2022-11-04T05:18:56.868Z,999.68
2022-11-04T05:19:56.868Z,999.69
2022-11-04T05:20:56.864Z,999.72
2022-11-04T05:21:56.863Z,999.76
2022-11-04T05:22:56.857Z,999.78
2022-11-04T05:23:56.861Z,999.78
2022-11-04T05:24:56.859Z,999.78
2022-11-04T05:25:56.858Z,999.77
2022-11-04T05:26:56.864Z,999.81
2022-11-04T05:27:56.853Z,999.81
2022-11-04T05:28:56.858Z,999.80
2022-11-04T05:29:56.846Z,999.85
2022-11-04T05:30:56.846Z,999.89
2022-11-04T05:31:56.853Z,999.87
2022-11-04T05:33:00.026Z,999.85
2022-11-04T05:33:56.860Z,999.88
2022-11-04T05:34:56.840Z,999.89
2022-11-04T05:35:56.844Z,999.90
2022-11-04T05:36:56.841Z,999.90
2022-11-04T05:37:56.841Z,999.90
2022-11-04T05:38:56.838Z,999.93
2022-11-04T05:39:56.834Z,999.95
2022-11-04T05:40:56.837Z,999.94
2022-11-04T05:41:56.833Z,999.95
2022-11-04T05:42:56.832Z,1000.01
2022-11-04T05:43:56.829Z,999.99
2022-11-04T05:44:56.830Z,999.98
2022-11-04T05:45:56.826Z,1000.00
2022-11-04T05:46:56.825Z,1000.01
2022-11-04T05:47:56.823Z,1000.07
2022-11-04T05:48:56.826Z,1000.08
2022-11-04T05:49:56.846Z,1000.05
2022-11-04T05:50:56.824Z,1000.05
2022-11-04T05:51:56.821Z,1000.06
2022-11-04T05:52:56.823Z,1000.06
2022-11-04T05:53:56.816Z,1000.08
2022-11-04T05:54:56.818Z,1000.09
2022-11-04T05:55:57.144Z,1000.11
2022-11-04T05:56:56.812Z,1000.13
2022-11-04T05:57:56.823Z,1000.10
2022-11-04T05:58:56.810Z,1000.13
2022-11-04T05:59:56.805Z,1000.19
2022-11-04T06:00:56.808Z,1000.19
2022-11-04T06:01:56.946Z,1000.14
2022-11-04T06:02:56.947Z,1000.20
2022-11-04T06:03:56.804Z,1000.20
2022-11-04T06:04:56.799Z,1000.18
2022-11-04T06:05:56.827Z,1000.23
2022-11-04T06:06:56.798Z,1000.22
2022-11-04T06:07:56.800Z,1000.24
2022-11-04T06:08:56.801Z,1000.27
2022-11-04T06:09:56.791Z,1000.27
2022-11-04T06:10:56.797Z,1000.26
2022-11-04T06:11:56.798Z,1000.29
2022-11-04T06:12:56.793Z,1000.33
2022-11-04T06:13:56.792Z,1000.38
2022-11-04T06:14:56.785Z,1000.41
2022-11-04T06:15:56.788Z,1000.44
2022-11-04T06:16:56.785Z,1000.46
2022-11-04T06:17:56.782Z,1000.49
2022-11-04T06:19:01.388Z,1000.52
2022-11-04T06:19:56.787Z,1000.52
2022-11-04T06:20:56.781Z,1000.56
2022-11-04T06:21:56.803Z,1000.59
2022-11-04T06:22:56.773Z,1000.59
2022-11-04T06:23:56.780Z,1000.62
2022-11-04T06:24:56.770Z,1000.59
2022-11-04T06:25:56.776Z,1000.59
2022-11-04T06:26:56.778Z,1000.55
2022-11-04T06:27:56.776Z,1000.57
2022-11-04T06:28:56.784Z,1000.52
2022-11-04T06:29:56.786Z,1000.55
2022-11-04T06:30:56.773Z,1000.56
2022-11-04T06:31:56.772Z,1000.53
2022-11-04T06:32:56.769Z,1000.54
2022-11-04T06:33:56.768Z,1000.55
2022-11-04T06:34:56.763Z,1000.56
2022-11-04T06:35:56.762Z,1000.54
2022-11-04T06:36:56.759Z,1000.52
2022-11-04T06:37:56.785Z,1000.57
2022-11-04T06:39:03.094Z,1000.54
2022-11-04T06:39:56.759Z,1000.50
2022-11-04T06:40:56.790Z,1000.54
2022-11-04T06:41:59.543Z,1000.55
2022-11-04T06:42:56.749Z,1000.57
2022-11-04T06:43:56.751Z,1000.61
2022-11-04T06:44:56.747Z,1000.63
2022-11-04T06:45:56.752Z,1000.66
2022-11-04T06:46:56.801Z,1000.70
2022-11-04T06:47:56.747Z,1000.73
2022-11-04T06:48:56.744Z,1000.72
2022-11-04T06:49:56.744Z,1000.71
2022-11-04T06:50:56.749Z,1000.75
2022-11-04T06:51:56.739Z,1000.75
2022-11-04T06:52:56.741Z,1000.77
2022-11-04T06:53:56.758Z,1000.80
2022-11-04T06:54:56.740Z,1000.80
2022-11-04T06:55:56.745Z,1000.78
2022-11-04T06:56:56.733Z,1000.79
2022-11-04T06:57:56.734Z,1000.77
2022-11-04T06:58:56.727Z,1000.77
2022-11-04T06:59:56.727Z,1000.85
2022-11-04T07:00:56.848Z,1000.82
2022-11-04T07:01:56.938Z,1000.85
2022-11-04T07:02:56.891Z,1000.84
2022-11-04T07:03:56.729Z,1000.84
2022-11-04T07:05:56.726Z,1000.86
2022-11-04T07:06:56.722Z,1000.89
2022-11-04T07:07:56.721Z,1000.86
2022-11-04T07:08:56.719Z,1000.85
2022-11-04T07:09:56.736Z,1000.82
2022-11-04T07:10:56.723Z,1000.86
2022-11-04T07:11:56.719Z,1000.89
2022-11-04T07:12:56.717Z,1000.89
2022-11-04T07:13:56.713Z,1000.90
2022-11-04T07:14:56.714Z,1000.89
2022-11-04T07:15:56.730Z,1000.87
2022-11-04T07:16:56.734Z,1000.85
2022-11-04T07:17:56.704Z,1000.85
2022-11-04T07:18:56.707Z,1000.84
2022-11-04T07:19:56.705Z,1000.81
2022-11-04T07:20:56.708Z,1000.77
2022-11-04T07:21:56.704Z,1000.72
2022-11-04T07:22:56.702Z,1000.71
2022-11-04T07:23:56.700Z,1000.73
2022-11-04T07:24:56.700Z,1000.70
2022-11-04T07:25:56.722Z,1000.68
2022-11-04T07:26:56.802Z,1000.68
2022-11-04T07:27:59.514Z,1000.70
2022-11-04T07:28:56.696Z,1000.71
2022-11-04T07:29:56.691Z,1000.73
2022-11-04T07:30:56.698Z,1000.75
2022-11-04T07:31:56.690Z,1000.74
2022-11-04T07:32:56.688Z,1000.77
2022-11-04T07:33:56.686Z,1000.79
2022-11-04T07:34:56.692Z,1000.80
2022-11-04T07:35:58.113Z,1000.82
2022-11-04T07:36:56.688Z,1000.85
2022-11-04T07:37:56.684Z,1000.90
2022-11-04T07:38:56.682Z,1000.87
2022-11-04T07:39:56.686Z,1000.83
2022-11-04T07:40:56.682Z,1000.85
2022-11-04T07:41:59.464Z,1000.85
2022-11-04T07:42:56.678Z,1000.87
2022-11-04T07:43:56.682Z,1000.88
2022-11-04T07:44:56.679Z,1000.89
2022-11-04T07:45:56.680Z,1000.91
2022-11-04T07:46:56.683Z,1000.93
2022-11-04T07:47:56.676Z,1000.88
2022-11-04T07:48:56.676Z,1000.86
2022-11-04T07:49:56.742Z,1000.83
2022-11-04T07:50:56.670Z,1000.81
2022-11-04T07:51:56.669Z,1000.73
2022-11-04T07:52:56.664Z,1000.72
2022-11-04T07:53:56.668Z,1000.67
2022-11-04T07:54:56.668Z,1000.67
2022-11-04T07:55:56.669Z,1000.65
2022-11-04T07:56:56.667Z,1000.64
2022-11-04T07:57:56.690Z,1000.69
2022-11-04T07:58:56.662Z,1000.68
2022-11-04T07:59:56.662Z,1000.66
2022-11-04T08:00:56.659Z,1000.68
2022-11-04T08:01:56.901Z,1000.63
2022-11-04T08:02:56.690Z,1000.63
2022-11-04T08:03:56.664Z,1000.69
2022-11-04T08:04:56.662Z,1000.70
2022-11-04T08:05:56.655Z,1000.68
2022-11-04T08:06:56.664Z,1000.69
2022-11-04T08:07:56.658Z,1000.71
2022-11-04T08:08:56.727Z,1000.68
2022-11-04T08:09:56.649Z,1000.70
2022-11-04T08:10:56.653Z,1000.70
2022-11-04T08:11:56.652Z,1000.66
2022-11-04T08:12:56.645Z,1000.67
2022-11-04T08:13:56.673Z,1000.68
2022-11-04T08:14:56.649Z,1000.66
2022-11-04T08:15:56.645Z,1000.70
2022-11-04T08:16:56.644Z,1000.71
2022-11-04T08:17:56.642Z,1000.68
2022-11-04T08:18:56.641Z,1000.70
2022-11-04T08:19:56.645Z,1000.72
2022-11-04T08:20:56.643Z,1000.66
2022-11-04T08:21:56.640Z,1000.72
2022-11-04T08:22:56.640Z,1000.71
2022-11-04T08:23:56.636Z,1000.71
2022-11-04T08:24:56.634Z,1000.72
2022-11-04T08:25:56.645Z,1000.71
2022-11-04T08:26:56.634Z,1000.73
2022-11-04T08:28:00.679Z,1000.75
2022-11-04T08:28:56.638Z,1000.76
2022-11-04T08:29:56.658Z,1000.80
2022-11-04T08:30:56.634Z,1000.82
2022-11-04T08:31:56.638Z,1000.83
2022-11-04T08:32:56.628Z,1000.81
2022-11-04T08:33:56.637Z,1000.82
2022-11-04T08:34:56.632Z,1000.77
2022-11-04T08:35:56.634Z,1000.80
2022-11-04T08:36:56.630Z,1000.80
2022-11-04T08:37:56.630Z,1000.79
2022-11-04T08:38:56.631Z,1000.82
2022-11-04T08:39:56.637Z,1000.85
2022-11-04T08:40:59.786Z,1000.81
2022-11-04T08:41:57.383Z,1000.83
2022-11-04T08:42:56.624Z,1000.84
2022-11-04T08:43:56.624Z,1000.80
2022-11-04T08:44:56.623Z,1000.78
2022-11-04T08:45:56.642Z,1000.77
2022-11-04T08:46:56.622Z,1000.78
2022-11-04T08:47:59.080Z,1000.78
2022-11-04T08:48:56.619Z,1000.83
2022-11-04T08:49:56.621Z,1000.81
2022-11-04T08:50:56.620Z,1000.87
2022-11-04T08:51:56.848Z,1000.90
2022-11-04T08:52:56.618Z,1000.94
2022-11-04T08:53:56.623Z,1001.02
2022-11-04T08:54:57.568Z,1001.05
2022-11-04T08:55:56.618Z,1001.07
2022-11-04T08:56:56.620Z,1001.08
2022-11-04T08:57:56.614Z,1001.09
2022-11-04T08:58:56.615Z,1001.07
2022-11-04T08:59:56.616Z,1001.08
2022-11-04T09:00:56.617Z,1001.02
2022-11-04T09:01:56.780Z,1001.03
2022-11-04T09:02:56.617Z,1001.00
2022-11-04T09:03:56.643Z,1000.95
2022-11-04T09:04:56.614Z,1000.99
2022-11-04T09:05:56.623Z,1000.99
2022-11-04T09:06:56.612Z,1000.97
2022-11-04T09:07:56.608Z,1000.99
2022-11-04T09:08:56.620Z,1000.97
2022-11-04T09:09:56.611Z,1001.02
2022-11-04T09:10:56.604Z,1000.97
2022-11-04T09:11:56.617Z,1001.02
2022-11-04T09:12:56.608Z,1001.02
2022-11-04T09:13:56.601Z,1000.98
2022-11-04T09:14:56.606Z,1000.97
2022-11-04T09:15:56.609Z,1000.88
2022-11-04T09:16:56.619Z,1000.90
2022-11-04T09:17:56.709Z,1000.86
2022-11-04T09:18:56.601Z,1000.83
2022-11-04T09:19:56.612Z,1000.84
2022-11-04T09:20:56.604Z,1000.88
2022-11-04T09:21:56.602Z,1000.92
2022-11-04T09:22:56.603Z,1000.89
2022-11-04T09:23:56.599Z,1000.87
2022-11-04T09:24:56.602Z,1000.84
2022-11-04T09:25:56.600Z,1000.77
2022-11-04T09:26:56.598Z,1000.71
2022-11-04T09:27:56.638Z,1000.72
2022-11-04T09:28:56.599Z,1000.69
2022-11-04T09:29:56.596Z,1000.70
2022-11-04T09:30:56.595Z,1000.72
2022-11-04T09:31:56.608Z,1000.75
2022-11-04T09:32:56.607Z,1000.75
2022-11-04T09:33:56.701Z,1000.79
2022-11-04T09:34:56.597Z,1000.72
2022-11-04T09:35:56.601Z,1000.70
2022-11-04T09:36:56.598Z,1000.68
2022-11-04T09:37:56.604Z,1000.65
2022-11-04T09:38:56.596Z,1000.68
2022-11-04T09:39:56.597Z,1000.71
2022-11-04T09:40:56.596Z,1000.67
2022-11-04T09:41:56.599Z,1000.65
2022-11-04T09:42:56.591Z,1000.65
2022-11-04T09:43:56.595Z,1000.60
2022-11-04T09:45:26.392Z,1000.60
2022-11-04T09:45:56.592Z,1000.59
2022-11-04T09:46:56.600Z,1000.52
2022-11-04T09:47:56.611Z,1000.51
2022-11-04T09:48:56.593Z,1000.53
2022-11-04T09:49:56.791Z,1000.50
2022-11-04T09:50:56.595Z,1000.50
2022-11-04T09:51:56.624Z,1000.60
2022-11-04T09:52:56.595Z,1000.63
2022-11-04T09:53:56.592Z,1000.60
2022-11-04T09:54:56.598Z,1000.58
2022-11-04T09:55:56.596Z,1000.56
2022-11-04T09:56:56.590Z,1000.55
2022-11-04T09:57:56.677Z,1000.58
2022-11-04T09:58:56.594Z,1000.54
2022-11-04T09:59:56.597Z,1000.62
2022-11-04T10:00:56.653Z,1000.70
2022-11-04T10:01:56.694Z,1000.73
2022-11-04T10:02:56.594Z,1000.85
2022-11-04T10:03:56.592Z,1000.86
2022-11-04T10:04:56.597Z,1000.95
2022-11-04T10:05:56.684Z,1000.94
2022-11-04T10:06:56.591Z,1000.99
2022-11-04T10:07:56.587Z,1001.02
2022-11-04T10:08:56.595Z,1001.07
2022-11-04T10:09:56.601Z,1001.06
2022-11-04T10:10:56.598Z,1001.09
2022-11-04T10:11:56.589Z,1001.16
2022-11-04T10:12:56.593Z,1001.22
2022-11-04T10:13:56.590Z,1001.23
2022-11-04T10:14:56.589Z,1001.26
2022-11-04T10:15:56.586Z,1001.23
2022-11-04T10:16:56.588Z,1001.31
2022-11-04T10:17:56.585Z,1001.28
2022-11-04T10:18:56.589Z,1001.34
2022-11-04T10:19:56.589Z,1001.32
2022-11-04T10:20:56.587Z,1001.39
2022-11-04T10:21:56.687Z,1001.36
2022-11-04T10:22:56.592Z,1001.33
2022-11-04T10:23:56.583Z,1001.38
2022-11-04T10:24:56.587Z,1001.39
2022-11-04T10:25:56.586Z,1001.38
2022-11-04T10:27:00.492Z,1001.38
2022-11-04T10:27:56.591Z,1001.43
2022-11-04T10:28:56.583Z,1001.36
2022-11-04T10:29:56.586Z,1001.41
2022-11-04T10:30:56.584Z,1001.35
2022-11-04T10:31:56.592Z,1001.36
2022-11-04T10:32:56.585Z,1001.35
2022-11-04T10:33:56.582Z,1001.35
2022-11-04T10:34:56.587Z,1001.33
2022-11-04T10:35:56.587Z,1001.32
2022-11-04T10:36:56.585Z,1001.34
2022-11-04T10:37:56.697Z,1001.32
2022-11-04T10:38:56.585Z,1001.34
2022-11-04T10:39:56.593Z,1001.35
2022-11-04T10:40:56.585Z,1001.40
2022-11-04T10:41:56.579Z,1001.44
2022-11-04T10:42:56.584Z,1001.45
2022-11-04T10:43:56.580Z,1001.45
2022-11-04T10:44:56.583Z,1001.43
2022-11-04T10:45:56.581Z,1001.39
2022-11-04T10:46:56.586Z,1001.41
2022-11-04T10:47:56.578Z,1001.39
2022-11-04T10:48:56.582Z,1001.38
2022-11-04T10:50:26.354Z,1001.40
2022-11-04T10:50:56.581Z,1001.40
2022-11-04T10:51:56.587Z,1001.42
2022-11-04T10:52:56.583Z,1001.43
2022-11-04T10:53:56.715Z,1001.39
2022-11-04T10:54:56.580Z,1001.41
2022-11-04T10:55:56.582Z,1001.42
2022-11-04T10:56:56.732Z,1001.39
2022-11-04T10:57:56.582Z,1001.43
2022-11-04T10:58:56.577Z,1001.42
2022-11-04T10:59:56.583Z,1001.42
2022-11-04T11:00:56.993Z,1001.48
2022-11-04T11:01:56.833Z,1001.50
2022-11-04T11:02:56.579Z,1001.51
2022-11-04T11:03:56.583Z,1001.55
2022-11-04T11:04:56.578Z,1001.58
2022-11-04T11:05:56.573Z,1001.56
2022-11-04T11:06:56.579Z,1001.58
2022-11-04T11:07:56.579Z,1001.58
2022-11-04T11:08:56.577Z,1001.58
2022-11-04T11:09:56.598Z,1001.59
2022-11-04T11:10:56.584Z,1001.56
2022-11-04T11:11:56.581Z,1001.59
2022-11-04T11:12:56.585Z,1001.58
2022-11-04T11:13:56.574Z,1001.57
2022-11-04T11:14:56.568Z,1001.60
2022-11-04T11:15:56.574Z,1001.64
2022-11-04T11:16:56.577Z,1001.64
2022-11-04T11:17:56.571Z,1001.65
2022-11-04T11:18:56.577Z,1001.66
2022-11-04T11:19:56.572Z,1001.65
2022-11-04T11:20:56.574Z,1001.71
2022-11-04T11:21:56.574Z,1001.70
2022-11-04T11:23:00.545Z,1001.69
2022-11-04T11:23:56.572Z,1001.69
2022-11-04T11:24:56.576Z,1001.69
2022-11-04T11:25:56.591Z,1001.69
2022-11-04T11:26:56.574Z,1001.70
2022-11-04T11:27:56.569Z,1001.73
2022-11-04T11:28:59.201Z,1001.76
2022-11-04T11:29:56.568Z,1001.77
2022-11-04T11:30:56.569Z,1001.77
2022-11-04T11:31:56.573Z,1001.80
2022-11-04T11:32:56.567Z,1001.84
2022-11-04T11:33:56.565Z,1001.88
2022-11-04T11:34:56.571Z,1001.83
2022-11-04T11:35:56.570Z,1001.91
2022-11-04T11:36:56.569Z,1001.87
2022-11-04T11:37:56.569Z,1001.84
2022-11-04T11:38:56.570Z,1001.87
2022-11-04T11:39:56.573Z,1001.79
2022-11-04T11:41:23.384Z,1001.83
2022-11-04T11:41:56.592Z,1001.85
2022-11-04T11:42:56.567Z,1001.86
2022-11-04T11:43:56.567Z,1001.86
2022-11-04T11:44:56.574Z,1001.88
2022-11-04T11:45:56.564Z,1001.86
2022-11-04T11:46:56.566Z,1001.87
2022-11-04T11:47:56.572Z,1001.84
2022-11-04T11:48:56.566Z,1001.85
2022-11-04T11:49:56.566Z,1001.84
2022-11-04T11:50:56.568Z,1001.83
2022-11-04T11:51:56.569Z,1001.89
2022-11-04T11:52:56.569Z,1001.85
2022-11-04T11:53:56.566Z,1001.92
2022-11-04T11:54:56.565Z,1001.91
2022-11-04T11:55:56.567Z,1001.92
2022-11-04T11:57:13.473Z,1001.92
2022-11-04T12:01:02.062Z,1001.93
2022-11-04T12:01:56.749Z,1001.91
2022-11-04T12:02:57.213Z,1001.92
2022-11-04T12:09:56.570Z,1001.93
2022-11-04T12:10:56.560Z,1001.92
2022-11-04T12:11:56.566Z,1001.96
2022-11-04T12:12:56.559Z,1001.95
2022-11-04T12:13:56.589Z,1001.94
2022-11-04T12:14:56.561Z,1001.94
2022-11-04T12:15:56.558Z,1001.99
2022-11-04T12:16:56.563Z,1001.97
2022-11-04T12:17:56.555Z,1001.99
2022-11-04T12:18:56.559Z,1001.96
2022-11-04T12:19:56.562Z,1001.95
2022-11-04T12:20:56.559Z,1001.99
2022-11-04T12:21:56.568Z,1001.97
2022-11-04T12:22:56.560Z,1001.98
2022-11-04T12:23:56.555Z,1001.97